Airfield :
LOGIN :

Register | Disclaimer

   EN    FR    IT 

 










Legend :    VFR   Marginal VFR   IFR   Intensive IFR   Very Intensive IFR
Visi :
Ceiling :
>= 8 km
>= 3000ft
5 to 8 km
1000 to 3000 ft
1500m to 5 km
500 to 1000 ft
800 to 1500m
200 to 500 ft
< 800m
< 200 ft
Symbols :   Thunderstorms  Fog  Heavy snow  Heavy precipitations  Wind > 20 kt
SIGMETs :     Misc.  Thunderstorms  Icing  Turbulence  Mountain Waves  Volcanic Ashes






- Airport Elevation : 390 ft
- IATA code : NQY


EGHQ - Newquay

CURRENT METAR :
  • 231520Z 32014KT 9999 SCT025 BKN038 13/06 Q1018

EXPIRED METARs :
  • 231450Z 32016KT 9999 BKN030 13/06 Q1018
  • 231420Z 32017KT 9999 FEW015 SCT028 13/06 Q1018
  • 231350Z 32015KT 9999 BKN024 13/07 Q1018
  • 231320Z 32014KT 9999 BKN022 12/07 Q1018
  • 231250Z 32015KT 9999 SCT022 12/07 Q1018
  • 231220Z 31015KT 9999 BKN022 12/07 Q1018
  • 231150Z 32015KT 9999 BKN027 12/06 Q1018
  • 231120Z 32014KT 9999 BKN024 12/06 Q1018
  • 231050Z 32015KT 9999 SCT026 13/07 Q1018
  • 231020Z 31015KT 9999 BKN024 12/06 Q1018

TAF TAF EGHQ
Valid from the 23 at 15:00 until the 24 at 00:00 UTC


231357Z 2315/2324 33012KT 9999 SCT025



MET'MAP, your aeronautical weather chart ! - Copyright ORBIFLY December 2007 - Disclaimer

ORBIFLY MET'MAP TEAM :

Programming & Development : Alexandra Zaïnal
Original concept : Baudouin d'Aumeries
Technical & hardware support : Manuel Goepfert
Assistance : Marc-Olivier Méhu




SOURCES & CREDITS :

   NOAA